DTA575 FNBJ-FAOR
Flight info
| Callsign | DTA575 |
|---|---|
| Flight time | 2h 54m |
| Altitude | 37000 |
| Route | ARGOL UN187 UVAMO UT942 UTVIN UM998 XOXAM UL435 ETOSA UZ10 PEDIL UQ19 AVAGO AVAGO1C |
| Aircraft | B77W/H-SDE1E2E3FGHIJ2J3J4J5M1RWXY/LB1D1 |
Departure
| Time | 2026-04-19 06:53 |
|---|---|
| Airport | Dr. Antonio Agostinho Neto International Airport (FNBJ) |
Arrival
| Time | 2026-04-19 09:48 |
|---|---|
| Airport | O.R. Tambo International Airport (FAOR) |
| Time | Latitude | Longitude | Altitude | Speed | Heading |
|---|---|---|---|---|---|
| 2026-04-19 06:03 | -9.05485 | 13.49917 | 574 ft | 0 kts | 323° |
| 2026-04-19 06:39 | -9.05492 | 13.49923 | 574 ft | 4 kts | 323° |
| 2026-04-19 06:39 | -9.05513 | 13.49939 | 574 ft | 3 kts | 323° |
| 2026-04-19 06:40 | -9.05529 | 13.49956 | 574 ft | 4 kts | 284° |
| 2026-04-19 06:40 | -9.05528 | 13.49981 | 575 ft | 4 kts | 247° |
| 2026-04-19 06:40 | -9.05516 | 13.50005 | 577 ft | 4 kts | 235° |
| 2026-04-19 06:40 | -9.05504 | 13.50021 | 574 ft | 0 kts | 233° |
| 2026-04-19 06:43 | -9.05506 | 13.50019 | 574 ft | 1 kts | 233° |
| 2026-04-19 06:43 | -9.05523 | 13.49995 | 574 ft | 7 kts | 233° |
| 2026-04-19 06:43 | -9.05559 | 13.49946 | 577 ft | 9 kts | 233° |
| 2026-04-19 06:44 | -9.05596 | 13.49896 | 576 ft | 9 kts | 233° |
| 2026-04-19 06:44 | -9.05634 | 13.49846 | 577 ft | 9 kts | 233° |
| 2026-04-19 06:44 | -9.05671 | 13.49796 | 577 ft | 9 kts | 232° |
| 2026-04-19 06:44 | -9.05720 | 13.49765 | 579 ft | 9 kts | 171° |
| 2026-04-19 06:45 | -9.05773 | 13.49798 | 578 ft | 9 kts | 144° |
| 2026-04-19 06:45 | -9.05823 | 13.49835 | 578 ft | 9 kts | 143° |
| 2026-04-19 06:45 | -9.05874 | 13.49873 | 578 ft | 9 kts | 143° |
| 2026-04-19 06:45 | -9.05924 | 13.49910 | 578 ft | 9 kts | 143° |
| 2026-04-19 06:46 | -9.05975 | 13.49948 | 578 ft | 9 kts | 143° |
| 2026-04-19 06:46 | -9.06025 | 13.49985 | 578 ft | 9 kts | 144° |
| 2026-04-19 06:46 | -9.06064 | 13.50031 | 580 ft | 9 kts | 95° |
| 2026-04-19 06:46 | -9.06037 | 13.50088 | 578 ft | 9 kts | 53° |
| 2026-04-19 06:47 | -9.05991 | 13.50150 | 578 ft | 13 kts | 53° |
| 2026-04-19 06:47 | -9.05927 | 13.50237 | 578 ft | 18 kts | 53° |
| 2026-04-19 06:47 | -9.05851 | 13.50340 | 578 ft | 18 kts | 53° |
| 2026-04-19 06:47 | -9.05774 | 13.50443 | 578 ft | 18 kts | 53° |
| 2026-04-19 06:48 | -9.05697 | 13.50547 | 579 ft | 18 kts | 53° |
| 2026-04-19 06:48 | -9.05620 | 13.50650 | 579 ft | 18 kts | 53° |
| 2026-04-19 06:48 | -9.05543 | 13.50753 | 579 ft | 18 kts | 53° |
| 2026-04-19 06:48 | -9.05466 | 13.50857 | 579 ft | 18 kts | 53° |
| 2026-04-19 06:49 | -9.05390 | 13.50959 | 580 ft | 18 kts | 53° |
| 2026-04-19 06:49 | -9.05313 | 13.51062 | 579 ft | 18 kts | 53° |
| 2026-04-19 06:49 | -9.05237 | 13.51166 | 579 ft | 18 kts | 53° |
| 2026-04-19 06:49 | -9.05159 | 13.51271 | 581 ft | 18 kts | 53° |
| 2026-04-19 06:50 | -9.05083 | 13.51373 | 579 ft | 18 kts | 53° |
| 2026-04-19 06:50 | -9.05006 | 13.51476 | 579 ft | 18 kts | 53° |
| 2026-04-19 06:50 | -9.04929 | 13.51579 | 579 ft | 18 kts | 53° |
| 2026-04-19 06:50 | -9.04852 | 13.51682 | 580 ft | 17 kts | 53° |
| 2026-04-19 06:51 | -9.04806 | 13.51745 | 580 ft | 9 kts | 53° |
| 2026-04-19 06:51 | -9.04804 | 13.51802 | 582 ft | 9 kts | 126° |
| 2026-04-19 06:51 | -9.04850 | 13.51845 | 581 ft | 9 kts | 143° |
| 2026-04-19 06:51 | -9.04904 | 13.51877 | 581 ft | 9 kts | 165° |
| 2026-04-19 06:52 | -9.04957 | 13.51848 | 581 ft | 8 kts | 232° |
| 2026-04-19 06:52 | -9.04961 | 13.51843 | 583 ft | 0 kts | 232° |
| 2026-04-19 06:52 | -9.05067 | 13.51702 | 581 ft | 64 kts | 233° |
| 2026-04-19 06:52 | -9.05489 | 13.51130 | 581 ft | 136 kts | 233° |
| 2026-04-19 06:53 | -9.06180 | 13.50198 | 622 ft | 188 kts | 233° |
| 2026-04-19 06:53 | -9.06918 | 13.49154 | 1362 ft | 178 kts | 233° |
| 2026-04-19 06:53 | -9.07721 | 13.48232 | 2053 ft | 177 kts | 210° |
| 2026-04-19 06:53 | -9.08822 | 13.47643 | 2618 ft | 183 kts | 206° |
| 2026-04-19 06:54 | -9.09968 | 13.47015 | 3288 ft | 191 kts | 207° |
| 2026-04-19 06:54 | -9.11214 | 13.46328 | 3711 ft | 217 kts | 206° |
| 2026-04-19 06:54 | -9.12622 | 13.45552 | 4024 ft | 242 kts | 207° |
| 2026-04-19 06:54 | -9.14131 | 13.44740 | 4785 ft | 249 kts | 203° |
| 2026-04-19 06:55 | -9.15808 | 13.44311 | 5506 ft | 252 kts | 180° |
| 2026-04-19 06:55 | -9.17569 | 13.44349 | 6386 ft | 256 kts | 174° |
| 2026-04-19 06:55 | -9.19408 | 13.44606 | 6935 ft | 275 kts | 168° |
| 2026-04-19 06:55 | -9.21319 | 13.44982 | 7686 ft | 285 kts | 166° |
| 2026-04-19 06:56 | -9.23281 | 13.45392 | 8502 ft | 291 kts | 167° |
| 2026-04-19 06:56 | -9.25291 | 13.45805 | 9357 ft | 298 kts | 167° |
| 2026-04-19 06:56 | -9.27351 | 13.46217 | 10125 ft | 306 kts | 167° |
| 2026-04-19 06:56 | -9.29508 | 13.46640 | 10582 ft | 328 kts | 167° |
| 2026-04-19 06:57 | -9.31849 | 13.47093 | 10789 ft | 357 kts | 168° |
| 2026-04-19 06:57 | -9.34371 | 13.47572 | 11124 ft | 378 kts | 168° |
| 2026-04-19 06:57 | -9.36987 | 13.48064 | 11853 ft | 386 kts | 168° |
| 2026-04-19 06:57 | -9.39643 | 13.48561 | 12715 ft | 390 kts | 169° |
| 2026-04-19 06:58 | -9.42338 | 13.49062 | 13491 ft | 397 kts | 168° |
| 2026-04-19 06:58 | -9.45063 | 13.49569 | 14258 ft | 401 kts | 168° |
| 2026-04-19 06:58 | -9.47826 | 13.50084 | 14970 ft | 407 kts | 168° |
| 2026-04-19 06:58 | -9.50616 | 13.50604 | 15780 ft | 408 kts | 169° |
| 2026-04-19 06:59 | -9.53428 | 13.51128 | 16482 ft | 414 kts | 169° |
| 2026-04-19 06:59 | -9.56272 | 13.51659 | 17237 ft | 417 kts | 169° |
| 2026-04-19 06:59 | -9.59144 | 13.52194 | 17914 ft | 423 kts | 169° |
| 2026-04-19 06:59 | -9.62058 | 13.52738 | 18541 ft | 428 kts | 169° |
| 2026-04-19 07:00 | -9.64999 | 13.53287 | 19144 ft | 432 kts | 168° |
| 2026-04-19 07:00 | -9.66967 | 13.53655 | 19557 ft | 434 kts | 168° |
| 2026-04-19 07:00 | -9.69942 | 13.54210 | 20216 ft | 437 kts | 169° |
| 2026-04-19 07:00 | -9.72944 | 13.54771 | 20836 ft | 440 kts | 169° |
| 2026-04-19 07:01 | -9.75967 | 13.55336 | 21435 ft | 444 kts | 168° |
| 2026-04-19 07:01 | -9.79022 | 13.55906 | 21996 ft | 449 kts | 168° |
| 2026-04-19 07:01 | -9.82109 | 13.56483 | 22537 ft | 453 kts | 168° |
| 2026-04-19 07:01 | -9.85223 | 13.57066 | 23127 ft | 456 kts | 168° |
| 2026-04-19 07:02 | -9.88357 | 13.57651 | 23648 ft | 459 kts | 168° |
| 2026-04-19 07:02 | -9.91510 | 13.58241 | 24156 ft | 461 kts | 168° |
| 2026-04-19 07:02 | -9.94672 | 13.58832 | 24666 ft | 463 kts | 168° |
| 2026-04-19 07:02 | -9.97839 | 13.59424 | 25183 ft | 464 kts | 168° |
| 2026-04-19 07:03 | -10.01018 | 13.60019 | 25693 ft | 465 kts | 169° |
| 2026-04-19 07:03 | -10.04200 | 13.60615 | 26212 ft | 466 kts | 169° |
| 2026-04-19 07:03 | -10.07399 | 13.61213 | 26677 ft | 468 kts | 169° |
| 2026-04-19 07:03 | -10.10613 | 13.61815 | 27145 ft | 471 kts | 169° |
| 2026-04-19 07:04 | -10.13831 | 13.62459 | 27613 ft | 472 kts | 166° |
| 2026-04-19 07:04 | -10.17008 | 13.63347 | 28041 ft | 475 kts | 163° |
| 2026-04-19 07:04 | -10.20186 | 13.64305 | 28453 ft | 478 kts | 163° |
| 2026-04-19 07:04 | -10.23378 | 13.65279 | 28878 ft | 480 kts | 163° |
| 2026-04-19 07:05 | -10.26585 | 13.66254 | 29310 ft | 482 kts | 163° |
| 2026-04-19 07:05 | -10.29806 | 13.67226 | 29728 ft | 484 kts | 164° |
| 2026-04-19 07:05 | -10.33039 | 13.68193 | 30086 ft | 486 kts | 164° |
| 2026-04-19 07:05 | -10.36249 | 13.69149 | 30367 ft | 488 kts | 164° |
| 2026-04-19 07:06 | -10.39514 | 13.70119 | 30712 ft | 489 kts | 165° |
| 2026-04-19 07:06 | -10.42783 | 13.71090 | 31095 ft | 489 kts | 165° |
| 2026-04-19 07:06 | -10.46044 | 13.72059 | 31498 ft | 489 kts | 165° |
| 2026-04-19 07:06 | -10.49307 | 13.73030 | 31892 ft | 488 kts | 165° |
| 2026-04-19 07:07 | -10.52566 | 13.74000 | 32289 ft | 488 kts | 165° |
| 2026-04-19 07:07 | -10.55823 | 13.74969 | 32718 ft | 487 kts | 165° |
| 2026-04-19 07:07 | -10.59074 | 13.75938 | 33083 ft | 488 kts | 165° |
| 2026-04-19 07:07 | -10.62329 | 13.76907 | 33447 ft | 488 kts | 165° |
| 2026-04-19 07:08 | -10.65590 | 13.77879 | 33823 ft | 487 kts | 165° |
| 2026-04-19 07:08 | -10.68837 | 13.78847 | 34200 ft | 486 kts | 165° |
| 2026-04-19 07:08 | -10.72086 | 13.79817 | 34517 ft | 487 kts | 164° |
| 2026-04-19 07:08 | -10.75269 | 13.81008 | 34787 ft | 489 kts | 156° |
| 2026-04-19 07:09 | -10.78291 | 13.82611 | 35078 ft | 491 kts | 150° |
| 2026-04-19 07:09 | -10.81139 | 13.84526 | 35383 ft | 491 kts | 143° |
| 2026-04-19 07:09 | -10.83775 | 13.86745 | 35686 ft | 492 kts | 140° |
| 2026-04-19 07:09 | -10.86363 | 13.89020 | 35966 ft | 492 kts | 140° |
| 2026-04-19 07:10 | -10.88941 | 13.91307 | 36241 ft | 492 kts | 140° |
| 2026-04-19 07:10 | -10.91525 | 13.93597 | 36526 ft | 493 kts | 140° |
| 2026-04-19 07:10 | -10.94117 | 13.95881 | 36796 ft | 493 kts | 140° |
| 2026-04-19 07:10 | -10.96729 | 13.98169 | 36855 ft | 497 kts | 140° |
| 2026-04-19 07:11 | -11.01993 | 14.02754 | 36893 ft | 497 kts | 140° |
| 2026-04-19 07:11 | -11.07223 | 14.07298 | 36907 ft | 492 kts | 140° |
| 2026-04-19 07:12 | -11.12417 | 14.11812 | 36918 ft | 490 kts | 140° |
| 2026-04-19 07:12 | -11.17596 | 14.16318 | 36920 ft | 490 kts | 140° |
| 2026-04-19 07:13 | -11.22778 | 14.20829 | 36920 ft | 490 kts | 140° |
| 2026-04-19 07:13 | -11.27970 | 14.25352 | 36952 ft | 492 kts | 140° |
| 2026-04-19 07:14 | -11.33180 | 14.29892 | 36939 ft | 493 kts | 140° |
| 2026-04-19 07:14 | -11.38401 | 14.34446 | 36937 ft | 494 kts | 140° |
| 2026-04-19 07:15 | -11.43593 | 14.38975 | 36972 ft | 495 kts | 140° |
| 2026-04-19 07:16 | -11.51446 | 14.45831 | 36965 ft | 495 kts | 140° |
| 2026-04-19 07:16 | -11.56677 | 14.50400 | 36983 ft | 495 kts | 140° |
| 2026-04-19 07:17 | -11.61902 | 14.54967 | 36984 ft | 495 kts | 140° |
| 2026-04-19 07:17 | -11.67129 | 14.59537 | 36986 ft | 494 kts | 140° |
| 2026-04-19 07:18 | -11.72351 | 14.64106 | 36985 ft | 495 kts | 140° |
| 2026-04-19 07:18 | -11.77573 | 14.68676 | 36994 ft | 494 kts | 140° |
| 2026-04-19 07:19 | -11.82794 | 14.73250 | 37008 ft | 494 kts | 140° |
| 2026-04-19 07:19 | -11.88020 | 14.77828 | 36999 ft | 495 kts | 140° |
| 2026-04-19 07:20 | -11.93250 | 14.82413 | 36996 ft | 496 kts | 140° |
| 2026-04-19 07:20 | -11.98481 | 14.87002 | 37001 ft | 496 kts | 140° |
| 2026-04-19 07:21 | -12.03718 | 14.91598 | 36997 ft | 497 kts | 140° |
| 2026-04-19 07:21 | -12.08923 | 14.96169 | 37017 ft | 497 kts | 141° |
| 2026-04-19 07:22 | -12.14169 | 15.00777 | 37019 ft | 497 kts | 141° |
| 2026-04-19 07:22 | -12.19416 | 15.05389 | 37014 ft | 498 kts | 140° |
| 2026-04-19 07:23 | -12.24666 | 15.10007 | 37026 ft | 498 kts | 140° |
| 2026-04-19 07:23 | -12.29913 | 15.14624 | 37032 ft | 498 kts | 140° |
| 2026-04-19 07:24 | -12.35161 | 15.19245 | 37029 ft | 498 kts | 141° |
| 2026-04-19 07:24 | -12.40414 | 15.23872 | 37029 ft | 499 kts | 141° |
| 2026-04-19 07:25 | -12.45674 | 15.28509 | 37037 ft | 499 kts | 141° |
| 2026-04-19 07:25 | -12.50938 | 15.33151 | 37028 ft | 499 kts | 141° |
| 2026-04-19 07:26 | -12.56197 | 15.37792 | 37042 ft | 499 kts | 141° |
| 2026-04-19 07:26 | -12.61456 | 15.42436 | 37039 ft | 499 kts | 141° |
| 2026-04-19 07:27 | -12.66712 | 15.47078 | 37059 ft | 499 kts | 141° |
| 2026-04-19 07:27 | -12.71968 | 15.51725 | 37080 ft | 500 kts | 141° |
| 2026-04-19 07:28 | -12.77231 | 15.56379 | 37098 ft | 500 kts | 141° |
| 2026-04-19 07:28 | -12.82495 | 15.61038 | 37115 ft | 500 kts | 141° |
| 2026-04-19 07:29 | -12.87730 | 15.65672 | 37118 ft | 501 kts | 141° |
| 2026-04-19 07:29 | -12.92999 | 15.70341 | 37115 ft | 501 kts | 141° |
| 2026-04-19 07:30 | -12.98269 | 15.75012 | 37097 ft | 501 kts | 141° |
| 2026-04-19 07:30 | -13.03538 | 15.79686 | 37077 ft | 501 kts | 141° |
| 2026-04-19 07:31 | -13.08813 | 15.84368 | 37060 ft | 502 kts | 141° |
| 2026-04-19 07:31 | -13.14100 | 15.89063 | 37042 ft | 502 kts | 141° |
| 2026-04-19 07:32 | -13.19383 | 15.93757 | 37040 ft | 503 kts | 141° |
| 2026-04-19 07:32 | -13.24671 | 15.98458 | 37041 ft | 503 kts | 141° |
| 2026-04-19 07:33 | -13.29959 | 16.03162 | 37041 ft | 503 kts | 141° |
| 2026-04-19 07:33 | -13.35247 | 16.07870 | 37042 ft | 503 kts | 141° |
| 2026-04-19 07:34 | -13.40536 | 16.12580 | 37038 ft | 503 kts | 141° |
| 2026-04-19 07:34 | -13.45822 | 16.17292 | 37036 ft | 503 kts | 141° |
| 2026-04-19 07:35 | -13.51108 | 16.22006 | 37039 ft | 503 kts | 141° |
| 2026-04-19 07:35 | -13.56357 | 16.26689 | 37034 ft | 503 kts | 141° |
| 2026-04-19 07:36 | -13.61643 | 16.31410 | 37032 ft | 503 kts | 141° |
| 2026-04-19 07:36 | -13.66924 | 16.36129 | 37038 ft | 503 kts | 141° |
| 2026-04-19 07:37 | -13.72203 | 16.40849 | 37026 ft | 503 kts | 141° |
| 2026-04-19 07:37 | -13.77484 | 16.45583 | 37031 ft | 503 kts | 141° |
| 2026-04-19 07:38 | -13.82731 | 16.50363 | 37033 ft | 504 kts | 140° |
| 2026-04-19 07:38 | -13.87969 | 16.55161 | 37027 ft | 504 kts | 140° |
| 2026-04-19 07:39 | -13.93212 | 16.59960 | 37022 ft | 504 kts | 140° |
| 2026-04-19 07:39 | -13.98455 | 16.64755 | 37023 ft | 504 kts | 141° |
| 2026-04-19 07:40 | -14.03703 | 16.69554 | 37024 ft | 505 kts | 141° |
| 2026-04-19 07:40 | -14.08957 | 16.74361 | 37021 ft | 505 kts | 141° |
| 2026-04-19 07:41 | -14.14212 | 16.79173 | 37023 ft | 505 kts | 141° |
| 2026-04-19 07:41 | -14.19468 | 16.83990 | 37020 ft | 505 kts | 141° |
| 2026-04-19 07:42 | -14.24719 | 16.88806 | 37022 ft | 505 kts | 141° |
| 2026-04-19 07:42 | -14.29967 | 16.93621 | 37020 ft | 505 kts | 141° |
| 2026-04-19 07:43 | -14.35217 | 16.98442 | 37023 ft | 506 kts | 141° |
| 2026-04-19 07:43 | -14.40437 | 17.03237 | 37016 ft | 506 kts | 141° |
| 2026-04-19 07:44 | -14.45698 | 17.08074 | 37016 ft | 507 kts | 141° |
| 2026-04-19 07:44 | -14.50959 | 17.12914 | 37019 ft | 507 kts | 141° |
| 2026-04-19 07:45 | -14.56220 | 17.17758 | 37016 ft | 507 kts | 141° |
| 2026-04-19 07:45 | -14.61480 | 17.22604 | 37016 ft | 507 kts | 141° |
| 2026-04-19 07:46 | -14.66738 | 17.27451 | 37014 ft | 507 kts | 141° |
| 2026-04-19 07:46 | -14.71994 | 17.32299 | 37012 ft | 506 kts | 141° |
| 2026-04-19 07:47 | -14.77243 | 17.37145 | 37010 ft | 506 kts | 141° |
| 2026-04-19 07:47 | -14.82482 | 17.41984 | 37013 ft | 505 kts | 140° |
| 2026-04-19 07:48 | -14.87721 | 17.46827 | 37003 ft | 505 kts | 140° |
| 2026-04-19 07:48 | -14.92952 | 17.51665 | 37009 ft | 504 kts | 140° |
| 2026-04-19 07:49 | -14.97300 | 17.55690 | 37012 ft | 505 kts | 141° |
| 2026-04-19 07:49 | -15.02536 | 17.60538 | 37009 ft | 505 kts | 141° |
| 2026-04-19 07:50 | -15.07775 | 17.65393 | 37009 ft | 506 kts | 141° |
| 2026-04-19 07:50 | -15.13020 | 17.70257 | 37009 ft | 507 kts | 141° |
| 2026-04-19 07:51 | -15.18269 | 17.75129 | 37006 ft | 507 kts | 141° |
| 2026-04-19 07:51 | -15.23520 | 17.80005 | 37006 ft | 507 kts | 140° |
| 2026-04-19 07:52 | -15.28778 | 17.84892 | 37012 ft | 507 kts | 141° |
| 2026-04-19 07:52 | -15.34030 | 17.89776 | 37008 ft | 507 kts | 141° |
| 2026-04-19 07:53 | -15.39281 | 17.94663 | 37007 ft | 508 kts | 141° |
| 2026-04-19 07:53 | -15.44536 | 17.99558 | 37009 ft | 508 kts | 141° |
| 2026-04-19 07:54 | -15.49752 | 18.04418 | 36999 ft | 508 kts | 141° |
| 2026-04-19 07:54 | -15.55005 | 18.09317 | 37008 ft | 508 kts | 141° |
| 2026-04-19 07:55 | -15.60258 | 18.14220 | 37010 ft | 508 kts | 141° |
| 2026-04-19 07:55 | -15.65513 | 18.19128 | 37002 ft | 509 kts | 141° |
| 2026-04-19 07:56 | -15.70771 | 18.24042 | 37007 ft | 509 kts | 141° |
| 2026-04-19 07:56 | -15.76037 | 18.28968 | 37004 ft | 509 kts | 141° |
| 2026-04-19 07:57 | -15.81305 | 18.33898 | 37004 ft | 510 kts | 141° |
| 2026-04-19 07:57 | -15.86568 | 18.38829 | 37007 ft | 509 kts | 141° |
| 2026-04-19 07:58 | -15.91833 | 18.43764 | 36992 ft | 510 kts | 141° |
| 2026-04-19 07:58 | -15.97100 | 18.48705 | 36991 ft | 510 kts | 141° |
| 2026-04-19 07:59 | -16.02364 | 18.53646 | 37009 ft | 510 kts | 141° |
| 2026-04-19 07:59 | -16.07593 | 18.58559 | 37009 ft | 510 kts | 141° |
| 2026-04-19 08:00 | -16.12891 | 18.63540 | 36990 ft | 510 kts | 141° |
| 2026-04-19 08:00 | -16.18115 | 18.68454 | 37008 ft | 510 kts | 141° |
| 2026-04-19 08:01 | -16.23377 | 18.73410 | 36993 ft | 511 kts | 141° |
| 2026-04-19 08:01 | -16.28644 | 18.78372 | 37007 ft | 511 kts | 141° |
| 2026-04-19 08:02 | -16.33918 | 18.83345 | 36990 ft | 512 kts | 141° |
| 2026-04-19 08:02 | -16.39194 | 18.88324 | 37009 ft | 512 kts | 141° |
| 2026-04-19 08:03 | -16.44477 | 18.93314 | 36991 ft | 512 kts | 141° |
| 2026-04-19 08:03 | -16.49748 | 18.98296 | 36990 ft | 512 kts | 141° |
| 2026-04-19 08:04 | -16.55020 | 19.03283 | 36992 ft | 513 kts | 141° |
| 2026-04-19 08:04 | -16.60307 | 19.08287 | 36993 ft | 514 kts | 141° |
| 2026-04-19 08:05 | -16.65602 | 19.13303 | 36980 ft | 515 kts | 141° |
| 2026-04-19 08:05 | -16.70900 | 19.18326 | 36991 ft | 514 kts | 141° |
| 2026-04-19 08:06 | -16.76192 | 19.23348 | 36989 ft | 514 kts | 141° |
| 2026-04-19 08:06 | -16.81481 | 19.28370 | 37000 ft | 514 kts | 141° |
| 2026-04-19 08:07 | -16.86776 | 19.33402 | 36989 ft | 515 kts | 141° |
| 2026-04-19 08:07 | -16.92083 | 19.38449 | 36988 ft | 516 kts | 141° |
| 2026-04-19 08:08 | -16.97359 | 19.43470 | 36985 ft | 517 kts | 141° |
| 2026-04-19 08:08 | -17.02676 | 19.48536 | 36986 ft | 517 kts | 141° |
| 2026-04-19 08:09 | -17.07998 | 19.53610 | 36983 ft | 518 kts | 141° |
| 2026-04-19 08:09 | -17.13316 | 19.58685 | 36994 ft | 518 kts | 141° |
| 2026-04-19 08:10 | -17.18636 | 19.63765 | 36987 ft | 518 kts | 141° |
| 2026-04-19 08:10 | -17.23961 | 19.68854 | 36985 ft | 519 kts | 141° |
| 2026-04-19 08:11 | -17.29289 | 19.73950 | 36983 ft | 519 kts | 141° |
| 2026-04-19 08:11 | -17.34620 | 19.79053 | 36985 ft | 519 kts | 141° |
| 2026-04-19 08:12 | -17.39951 | 19.84161 | 36985 ft | 519 kts | 141° |
| 2026-04-19 08:12 | -17.45281 | 19.89271 | 36987 ft | 520 kts | 141° |
| 2026-04-19 08:13 | -17.50617 | 19.94391 | 36985 ft | 520 kts | 141° |
| 2026-04-19 08:13 | -17.55955 | 19.99519 | 36983 ft | 521 kts | 141° |
| 2026-04-19 08:14 | -17.61292 | 20.04650 | 36985 ft | 521 kts | 141° |
| 2026-04-19 08:14 | -17.69305 | 20.12360 | 36984 ft | 521 kts | 141° |
| 2026-04-19 08:15 | -17.74643 | 20.17503 | 36985 ft | 521 kts | 141° |
| 2026-04-19 08:15 | -17.79937 | 20.22608 | 36983 ft | 520 kts | 141° |
| 2026-04-19 08:16 | -17.85265 | 20.27750 | 36980 ft | 520 kts | 141° |
| 2026-04-19 08:16 | -17.90710 | 20.32719 | 36979 ft | 516 kts | 145° |
| 2026-04-19 08:17 | -17.96351 | 20.37382 | 36985 ft | 516 kts | 146° |
| 2026-04-19 08:17 | -18.02007 | 20.42024 | 36990 ft | 516 kts | 146° |
| 2026-04-19 08:18 | -18.07662 | 20.46710 | 36984 ft | 518 kts | 146° |
| 2026-04-19 08:18 | -18.13304 | 20.51414 | 36989 ft | 518 kts | 146° |
| 2026-04-19 08:19 | -18.18954 | 20.56132 | 36985 ft | 519 kts | 146° |
| 2026-04-19 08:19 | -18.24606 | 20.60852 | 36983 ft | 519 kts | 146° |
| 2026-04-19 08:20 | -18.30255 | 20.65573 | 37002 ft | 519 kts | 146° |
| 2026-04-19 08:20 | -18.35911 | 20.70304 | 36986 ft | 520 kts | 146° |
| 2026-04-19 08:21 | -18.41574 | 20.75044 | 36987 ft | 520 kts | 146° |
| 2026-04-19 08:21 | -18.47238 | 20.79789 | 36980 ft | 520 kts | 146° |
| 2026-04-19 08:22 | -18.52864 | 20.84507 | 36988 ft | 520 kts | 146° |
| 2026-04-19 08:22 | -18.58523 | 20.89257 | 36978 ft | 520 kts | 146° |
| 2026-04-19 08:23 | -18.64176 | 20.94007 | 36984 ft | 520 kts | 146° |
| 2026-04-19 08:23 | -18.69830 | 20.98761 | 36978 ft | 520 kts | 146° |
| 2026-04-19 08:24 | -18.75480 | 21.03516 | 36982 ft | 520 kts | 146° |
| 2026-04-19 08:24 | -18.81127 | 21.08276 | 36978 ft | 520 kts | 146° |
| 2026-04-19 08:25 | -18.86774 | 21.13042 | 36977 ft | 520 kts | 146° |
| 2026-04-19 08:25 | -18.92418 | 21.17810 | 36987 ft | 520 kts | 146° |
| 2026-04-19 08:26 | -18.98068 | 21.22586 | 36981 ft | 520 kts | 146° |
| 2026-04-19 08:26 | -19.03715 | 21.27365 | 36979 ft | 520 kts | 146° |
| 2026-04-19 08:27 | -19.09357 | 21.32143 | 36976 ft | 520 kts | 146° |
| 2026-04-19 08:27 | -19.15001 | 21.36928 | 36982 ft | 520 kts | 146° |
| 2026-04-19 08:28 | -19.20645 | 21.41717 | 36969 ft | 520 kts | 146° |
| 2026-04-19 08:28 | -19.26290 | 21.46511 | 36993 ft | 520 kts | 146° |
| 2026-04-19 08:29 | -19.31939 | 21.51313 | 36974 ft | 521 kts | 146° |
| 2026-04-19 08:29 | -19.37586 | 21.56118 | 36969 ft | 521 kts | 146° |
| 2026-04-19 08:30 | -19.43243 | 21.60937 | 36986 ft | 521 kts | 146° |
| 2026-04-19 08:30 | -19.48896 | 21.65756 | 36979 ft | 522 kts | 146° |
| 2026-04-19 08:31 | -19.54553 | 21.70598 | 36973 ft | 523 kts | 146° |
| 2026-04-19 08:31 | -19.60163 | 21.75428 | 36972 ft | 523 kts | 146° |
| 2026-04-19 08:32 | -19.65814 | 21.80297 | 36962 ft | 523 kts | 146° |
| 2026-04-19 08:32 | -19.71459 | 21.85162 | 36969 ft | 523 kts | 146° |
| 2026-04-19 08:33 | -19.77111 | 21.90018 | 36977 ft | 523 kts | 146° |
| 2026-04-19 08:33 | -19.82792 | 21.94823 | 36970 ft | 522 kts | 147° |
| 2026-04-19 08:34 | -19.88486 | 21.99630 | 36970 ft | 523 kts | 147° |
| 2026-04-19 08:34 | -19.94172 | 22.04449 | 36971 ft | 523 kts | 147° |
| 2026-04-19 08:35 | -19.99854 | 22.09276 | 36970 ft | 523 kts | 146° |
| 2026-04-19 08:35 | -20.05539 | 22.14111 | 36962 ft | 524 kts | 147° |
| 2026-04-19 08:36 | -20.11227 | 22.18951 | 36971 ft | 524 kts | 147° |
| 2026-04-19 08:36 | -20.15957 | 22.22980 | 36971 ft | 524 kts | 147° |
| 2026-04-19 08:37 | -20.21647 | 22.27831 | 36974 ft | 524 kts | 147° |
| 2026-04-19 08:37 | -20.27337 | 22.32688 | 36972 ft | 524 kts | 147° |
| 2026-04-19 08:38 | -20.33028 | 22.37550 | 36987 ft | 525 kts | 147° |
| 2026-04-19 08:38 | -20.38731 | 22.42425 | 36976 ft | 525 kts | 147° |
| 2026-04-19 08:39 | -20.44433 | 22.47311 | 36970 ft | 526 kts | 147° |
| 2026-04-19 08:39 | -20.50128 | 22.52207 | 36976 ft | 526 kts | 147° |
| 2026-04-19 08:40 | -20.55822 | 22.57109 | 36975 ft | 526 kts | 147° |
| 2026-04-19 08:40 | -20.61514 | 22.62013 | 36978 ft | 526 kts | 147° |
| 2026-04-19 08:41 | -20.67207 | 22.66921 | 36976 ft | 526 kts | 147° |
| 2026-04-19 08:41 | -20.72862 | 22.71802 | 36978 ft | 526 kts | 147° |
| 2026-04-19 08:42 | -20.78589 | 22.76750 | 36981 ft | 526 kts | 147° |
| 2026-04-19 08:42 | -20.84277 | 22.81670 | 36974 ft | 526 kts | 147° |
| 2026-04-19 08:43 | -20.89955 | 22.86604 | 36988 ft | 527 kts | 147° |
| 2026-04-19 08:43 | -20.95596 | 22.91524 | 36980 ft | 527 kts | 147° |
| 2026-04-19 08:44 | -21.01278 | 22.96482 | 36981 ft | 527 kts | 147° |
| 2026-04-19 08:44 | -21.06961 | 23.01445 | 36984 ft | 527 kts | 147° |
| 2026-04-19 08:45 | -21.12646 | 23.06414 | 36981 ft | 528 kts | 147° |
| 2026-04-19 08:45 | -21.18335 | 23.11391 | 36977 ft | 528 kts | 147° |
| 2026-04-19 08:46 | -21.24026 | 23.16377 | 36979 ft | 528 kts | 147° |
| 2026-04-19 08:46 | -21.29718 | 23.21366 | 36976 ft | 528 kts | 147° |
| 2026-04-19 08:47 | -21.35406 | 23.26355 | 36982 ft | 528 kts | 147° |
| 2026-04-19 08:47 | -21.41094 | 23.31349 | 36986 ft | 528 kts | 147° |
| 2026-04-19 08:48 | -21.46771 | 23.36341 | 36975 ft | 528 kts | 147° |
| 2026-04-19 08:48 | -21.52454 | 23.41343 | 36985 ft | 528 kts | 147° |
| 2026-04-19 08:49 | -21.58093 | 23.46312 | 36977 ft | 528 kts | 146° |
| 2026-04-19 08:49 | -21.63763 | 23.51313 | 36969 ft | 528 kts | 146° |
| 2026-04-19 08:50 | -21.69438 | 23.56324 | 36984 ft | 528 kts | 147° |
| 2026-04-19 08:50 | -21.75119 | 23.61345 | 36975 ft | 529 kts | 147° |
| 2026-04-19 08:51 | -21.80805 | 23.66376 | 36974 ft | 529 kts | 146° |
| 2026-04-19 08:51 | -21.86498 | 23.71419 | 36969 ft | 530 kts | 146° |
| 2026-04-19 08:52 | -21.92187 | 23.76464 | 36963 ft | 530 kts | 146° |
| 2026-04-19 08:52 | -21.97885 | 23.81522 | 36984 ft | 533 kts | 146° |
| 2026-04-19 08:53 | -22.03668 | 23.86655 | 36981 ft | 543 kts | 146° |
| 2026-04-19 08:53 | -22.09545 | 23.91881 | 36979 ft | 551 kts | 146° |
| 2026-04-19 08:54 | -22.15485 | 23.97174 | 36972 ft | 556 kts | 146° |
| 2026-04-19 08:54 | -22.21409 | 24.02461 | 36974 ft | 558 kts | 146° |
| 2026-04-19 08:55 | -22.27393 | 24.07805 | 36960 ft | 558 kts | 146° |
| 2026-04-19 08:55 | -22.33373 | 24.13150 | 36955 ft | 558 kts | 146° |
| 2026-04-19 08:56 | -22.39338 | 24.18489 | 36970 ft | 556 kts | 146° |
| 2026-04-19 08:56 | -22.45287 | 24.23818 | 36972 ft | 554 kts | 146° |
| 2026-04-19 08:57 | -22.51219 | 24.29138 | 36973 ft | 554 kts | 146° |
| 2026-04-19 08:57 | -22.57155 | 24.34466 | 36966 ft | 555 kts | 146° |
| 2026-04-19 08:58 | -22.63094 | 24.39805 | 36943 ft | 555 kts | 146° |
| 2026-04-19 08:58 | -22.69029 | 24.45148 | 36951 ft | 555 kts | 146° |
| 2026-04-19 08:59 | -22.74965 | 24.50496 | 36967 ft | 556 kts | 146° |
| 2026-04-19 08:59 | -22.80864 | 24.55836 | 36965 ft | 557 kts | 146° |
| 2026-04-19 09:00 | -22.86806 | 24.61236 | 36964 ft | 558 kts | 146° |
| 2026-04-19 09:00 | -22.92753 | 24.66647 | 36965 ft | 558 kts | 146° |
| 2026-04-19 09:01 | -22.98705 | 24.72066 | 36985 ft | 559 kts | 146° |
| 2026-04-19 09:01 | -23.04667 | 24.77499 | 36969 ft | 560 kts | 146° |
| 2026-04-19 09:02 | -23.10634 | 24.82943 | 36965 ft | 560 kts | 146° |
| 2026-04-19 09:02 | -23.16604 | 24.88397 | 36960 ft | 560 kts | 146° |
| 2026-04-19 09:03 | -23.22565 | 24.93850 | 36962 ft | 560 kts | 146° |
| 2026-04-19 09:03 | -23.28599 | 24.99188 | 36963 ft | 556 kts | 150° |
| 2026-04-19 09:04 | -23.34916 | 25.03992 | 36960 ft | 553 kts | 152° |
| 2026-04-19 09:04 | -23.41283 | 25.08680 | 36971 ft | 552 kts | 152° |
| 2026-04-19 09:05 | -23.47619 | 25.13420 | 36976 ft | 553 kts | 151° |
| 2026-04-19 09:05 | -23.53938 | 25.18218 | 36989 ft | 554 kts | 151° |
| 2026-04-19 09:06 | -23.60213 | 25.23006 | 36991 ft | 555 kts | 151° |
| 2026-04-19 09:06 | -23.66534 | 25.27830 | 36990 ft | 555 kts | 151° |
| 2026-04-19 09:07 | -23.72860 | 25.32657 | 36991 ft | 555 kts | 151° |
| 2026-04-19 09:07 | -23.79195 | 25.37495 | 37004 ft | 555 kts | 151° |
| 2026-04-19 09:08 | -23.85527 | 25.42337 | 37008 ft | 556 kts | 151° |
| 2026-04-19 09:08 | -23.91868 | 25.47191 | 37012 ft | 556 kts | 151° |
| 2026-04-19 09:09 | -23.98197 | 25.52045 | 37011 ft | 556 kts | 151° |
| 2026-04-19 09:09 | -24.04538 | 25.56911 | 37013 ft | 557 kts | 151° |
| 2026-04-19 09:10 | -24.10877 | 25.61783 | 37020 ft | 557 kts | 151° |
| 2026-04-19 09:10 | -24.17221 | 25.66665 | 37007 ft | 557 kts | 151° |
| 2026-04-19 09:11 | -24.23559 | 25.71548 | 37014 ft | 557 kts | 151° |
| 2026-04-19 09:11 | -24.29902 | 25.76440 | 37041 ft | 558 kts | 151° |
| 2026-04-19 09:12 | -24.36253 | 25.81345 | 37042 ft | 559 kts | 150° |
| 2026-04-19 09:12 | -24.42563 | 25.86225 | 37045 ft | 559 kts | 150° |
| 2026-04-19 09:13 | -24.48923 | 25.91150 | 37045 ft | 559 kts | 150° |
| 2026-04-19 09:13 | -24.55287 | 25.96084 | 37035 ft | 560 kts | 150° |
| 2026-04-19 09:14 | -24.61653 | 26.01026 | 37058 ft | 561 kts | 150° |
| 2026-04-19 09:14 | -24.68033 | 26.05985 | 37032 ft | 561 kts | 150° |
| 2026-04-19 09:15 | -24.74408 | 26.10947 | 37054 ft | 561 kts | 150° |
| 2026-04-19 09:16 | -24.83973 | 26.18402 | 37053 ft | 562 kts | 150° |
| 2026-04-19 09:16 | -24.90356 | 26.23386 | 37053 ft | 562 kts | 150° |
| 2026-04-19 09:17 | -24.96739 | 26.28377 | 37046 ft | 562 kts | 150° |
| 2026-04-19 09:17 | -25.03110 | 26.33365 | 37064 ft | 562 kts | 150° |
| 2026-04-19 09:18 | -25.09492 | 26.38366 | 37071 ft | 562 kts | 150° |
| 2026-04-19 09:18 | -25.15870 | 26.43374 | 37066 ft | 563 kts | 150° |
| 2026-04-19 09:19 | -25.22238 | 26.48410 | 37080 ft | 564 kts | 149° |
| 2026-04-19 09:19 | -25.28469 | 26.53710 | 37081 ft | 566 kts | 147° |
| 2026-04-19 09:20 | -25.34657 | 26.59094 | 37082 ft | 566 kts | 147° |
| 2026-04-19 09:20 | -25.40820 | 26.64396 | 37087 ft | 561 kts | 147° |
| 2026-04-19 09:21 | -25.46925 | 26.69621 | 36910 ft | 548 kts | 148° |
| 2026-04-19 09:21 | -25.49935 | 26.72195 | 36688 ft | 547 kts | 147° |
| 2026-04-19 09:21 | -25.52948 | 26.74772 | 36172 ft | 548 kts | 147° |
| 2026-04-19 09:21 | -25.55967 | 26.77361 | 35411 ft | 550 kts | 147° |
| 2026-04-19 09:22 | -25.58998 | 26.79962 | 34582 ft | 553 kts | 146° |
| 2026-04-19 09:22 | -25.61969 | 26.82692 | 33643 ft | 559 kts | 137° |
| 2026-04-19 09:22 | -25.64407 | 26.86085 | 32686 ft | 567 kts | 122° |
| 2026-04-19 09:22 | -25.66137 | 26.90009 | 31742 ft | 569 kts | 108° |
| 2026-04-19 09:23 | -25.67033 | 26.94246 | 31111 ft | 557 kts | 93° |
| 2026-04-19 09:23 | -25.67375 | 26.98495 | 30567 ft | 551 kts | 92° |
| 2026-04-19 09:23 | -25.67713 | 27.02717 | 29925 ft | 548 kts | 92° |
| 2026-04-19 09:23 | -25.68086 | 27.06910 | 29284 ft | 544 kts | 93° |
| 2026-04-19 09:24 | -25.68490 | 27.11059 | 28667 ft | 539 kts | 94° |
| 2026-04-19 09:24 | -25.68912 | 27.15171 | 28088 ft | 535 kts | 94° |
| 2026-04-19 09:24 | -25.69338 | 27.19250 | 27485 ft | 530 kts | 94° |
| 2026-04-19 09:24 | -25.69758 | 27.23288 | 26929 ft | 525 kts | 94° |
| 2026-04-19 09:25 | -25.70169 | 27.27268 | 26684 ft | 513 kts | 94° |
| 2026-04-19 09:25 | -25.70566 | 27.31154 | 26478 ft | 501 kts | 94° |
| 2026-04-19 09:25 | -25.70945 | 27.34898 | 26271 ft | 490 kts | 94° |
| 2026-04-19 09:25 | -25.71320 | 27.38611 | 26049 ft | 480 kts | 94° |
| 2026-04-19 09:26 | -25.71697 | 27.42246 | 25824 ft | 468 kts | 96° |
| 2026-04-19 09:26 | -25.72530 | 27.45699 | 25544 ft | 462 kts | 115° |
| 2026-04-19 09:26 | -25.74157 | 27.48713 | 25243 ft | 450 kts | 125° |
| 2026-04-19 09:26 | -25.75880 | 27.51608 | 24808 ft | 449 kts | 124° |
| 2026-04-19 09:27 | -25.77018 | 27.53568 | 24647 ft | 444 kts | 124° |
| 2026-04-19 09:27 | -25.79174 | 27.57354 | 24257 ft | 436 kts | 123° |
| 2026-04-19 09:27 | -25.80796 | 27.60239 | 23584 ft | 444 kts | 122° |
| 2026-04-19 09:27 | -25.82416 | 27.63137 | 23229 ft | 438 kts | 122° |
| 2026-04-19 09:28 | -25.83469 | 27.65023 | 23120 ft | 431 kts | 122° |
| 2026-04-19 09:28 | -25.85029 | 27.67817 | 22994 ft | 420 kts | 122° |
| 2026-04-19 09:28 | -25.86551 | 27.70543 | 22852 ft | 411 kts | 122° |
| 2026-04-19 09:28 | -25.88062 | 27.73247 | 22635 ft | 404 kts | 122° |
| 2026-04-19 09:29 | -25.89536 | 27.75885 | 22438 ft | 401 kts | 123° |
| 2026-04-19 09:29 | -25.90983 | 27.78480 | 22036 ft | 400 kts | 122° |
| 2026-04-19 09:29 | -25.92444 | 27.81104 | 21642 ft | 398 kts | 122° |
| 2026-04-19 09:29 | -25.93897 | 27.83709 | 21283 ft | 394 kts | 123° |
| 2026-04-19 09:30 | -25.95603 | 27.86049 | 20869 ft | 389 kts | 140° |
| 2026-04-19 09:30 | -25.97805 | 27.87722 | 20468 ft | 381 kts | 159° |
| 2026-04-19 09:30 | -26.00293 | 27.88566 | 20107 ft | 369 kts | 179° |
| 2026-04-19 09:30 | -26.02822 | 27.88689 | 19745 ft | 360 kts | 187° |
| 2026-04-19 09:31 | -26.05314 | 27.88582 | 19389 ft | 357 kts | 189° |
| 2026-04-19 09:31 | -26.07793 | 27.88413 | 19019 ft | 356 kts | 189° |
| 2026-04-19 09:31 | -26.10257 | 27.88595 | 18743 ft | 357 kts | 168° |
| 2026-04-19 09:31 | -26.12489 | 27.89750 | 18578 ft | 357 kts | 145° |
| 2026-04-19 09:32 | -26.14201 | 27.91757 | 18472 ft | 363 kts | 121° |
| 2026-04-19 09:32 | -26.15172 | 27.94361 | 18442 ft | 368 kts | 98° |
| 2026-04-19 09:32 | -26.15270 | 27.97166 | 18373 ft | 359 kts | 76° |
| 2026-04-19 09:32 | -26.14519 | 27.99738 | 18097 ft | 343 kts | 53° |
| 2026-04-19 09:33 | -26.13044 | 28.01700 | 17879 ft | 321 kts | 30° |
| 2026-04-19 09:33 | -26.11119 | 28.02771 | 17795 ft | 302 kts | 6° |
| 2026-04-19 09:33 | -26.09084 | 28.02850 | 17662 ft | 289 kts | 342° |
| 2026-04-19 09:33 | -26.07292 | 28.01968 | 17543 ft | 280 kts | 319° |
| 2026-04-19 09:34 | -26.06071 | 28.00311 | 17444 ft | 279 kts | 295° |
| 2026-04-19 09:34 | -26.05651 | 27.98201 | 17311 ft | 286 kts | 271° |
| 2026-04-19 09:34 | -26.06128 | 27.96032 | 17194 ft | 295 kts | 248° |
| 2026-04-19 09:34 | -26.07425 | 27.94233 | 16964 ft | 306 kts | 224° |
| 2026-04-19 09:35 | -26.09344 | 27.93149 | 16690 ft | 316 kts | 200° |
| 2026-04-19 09:35 | -26.11553 | 27.93003 | 16433 ft | 323 kts | 178° |
| 2026-04-19 09:35 | -26.13767 | 27.93460 | 16209 ft | 324 kts | 172° |
| 2026-04-19 09:35 | -26.15960 | 27.94049 | 15991 ft | 325 kts | 170° |
| 2026-04-19 09:36 | -26.18154 | 27.94665 | 15751 ft | 326 kts | 170° |
| 2026-04-19 09:36 | -26.20356 | 27.95208 | 15506 ft | 323 kts | 176° |
| 2026-04-19 09:36 | -26.22575 | 27.95519 | 15275 ft | 321 kts | 179° |
| 2026-04-19 09:36 | -26.24803 | 27.95770 | 15057 ft | 321 kts | 179° |
| 2026-04-19 09:37 | -26.27034 | 27.96007 | 14807 ft | 324 kts | 179° |
| 2026-04-19 09:37 | -26.29298 | 27.96237 | 14398 ft | 330 kts | 179° |
| 2026-04-19 09:37 | -26.31598 | 27.96465 | 13940 ft | 334 kts | 179° |
| 2026-04-19 09:37 | -26.33928 | 27.96687 | 13458 ft | 338 kts | 179° |
| 2026-04-19 09:38 | -26.36241 | 27.96904 | 12919 ft | 327 kts | 179° |
| 2026-04-19 09:38 | -26.38459 | 27.97117 | 12390 ft | 314 kts | 179° |
| 2026-04-19 09:38 | -26.40559 | 27.97326 | 11980 ft | 300 kts | 178° |
| 2026-04-19 09:38 | -26.42551 | 27.97907 | 11619 ft | 301 kts | 153° |
| 2026-04-19 09:39 | -26.44156 | 27.99386 | 11308 ft | 301 kts | 127° |
| 2026-04-19 09:39 | -26.45044 | 28.01460 | 10956 ft | 291 kts | 99° |
| 2026-04-19 09:39 | -26.45322 | 28.03621 | 10627 ft | 273 kts | 91° |
| 2026-04-19 09:39 | -26.45454 | 28.05669 | 10419 ft | 257 kts | 89° |
| 2026-04-19 09:40 | -26.45570 | 28.07597 | 10363 ft | 243 kts | 89° |
| 2026-04-19 09:40 | -26.45684 | 28.09441 | 10203 ft | 234 kts | 89° |
| 2026-04-19 09:40 | -26.45800 | 28.11261 | 10103 ft | 236 kts | 89° |
| 2026-04-19 09:40 | -26.45905 | 28.13083 | 9976 ft | 232 kts | 84° |
| 2026-04-19 09:41 | -26.45546 | 28.14746 | 9790 ft | 214 kts | 48° |
| 2026-04-19 09:41 | -26.44482 | 28.15759 | 9706 ft | 197 kts | 17° |
| 2026-04-19 09:41 | -26.43200 | 28.16342 | 9691 ft | 203 kts | 13° |
| 2026-04-19 09:41 | -26.41854 | 28.16857 | 9593 ft | 204 kts | 11° |
| 2026-04-19 09:42 | -26.40515 | 28.17311 | 9530 ft | 196 kts | 9° |
| 2026-04-19 09:42 | -26.39207 | 28.17730 | 9466 ft | 195 kts | 9° |
| 2026-04-19 09:42 | -26.37910 | 28.18138 | 9368 ft | 192 kts | 9° |
| 2026-04-19 09:42 | -26.36628 | 28.18539 | 9266 ft | 191 kts | 8° |
| 2026-04-19 09:43 | -26.35345 | 28.18937 | 9136 ft | 193 kts | 8° |
| 2026-04-19 09:43 | -26.34064 | 28.19336 | 8967 ft | 190 kts | 9° |
| 2026-04-19 09:43 | -26.32801 | 28.19731 | 8718 ft | 186 kts | 9° |
| 2026-04-19 09:43 | -26.31567 | 28.20116 | 8478 ft | 182 kts | 10° |
| 2026-04-19 09:44 | -26.30355 | 28.20494 | 8259 ft | 181 kts | 9° |
| 2026-04-19 09:44 | -26.29153 | 28.20868 | 8032 ft | 177 kts | 10° |
| 2026-04-19 09:44 | -26.27978 | 28.21234 | 7824 ft | 174 kts | 10° |
| 2026-04-19 09:44 | -26.26822 | 28.21594 | 7608 ft | 173 kts | 9° |
| 2026-04-19 09:45 | -26.25657 | 28.21957 | 7365 ft | 171 kts | 10° |
| 2026-04-19 09:45 | -26.24502 | 28.22317 | 7140 ft | 170 kts | 10° |
| 2026-04-19 09:45 | -26.23387 | 28.22664 | 6948 ft | 160 kts | 10° |
| 2026-04-19 09:45 | -26.22349 | 28.22987 | 6740 ft | 154 kts | 9° |
| 2026-04-19 09:46 | -26.21351 | 28.23297 | 6500 ft | 145 kts | 11° |
| 2026-04-19 09:46 | -26.20402 | 28.23602 | 6307 ft | 143 kts | 11° |
| 2026-04-19 09:46 | -26.19360 | 28.23930 | 6161 ft | 160 kts | 13° |
| 2026-04-19 09:46 | -26.18330 | 28.24245 | 5918 ft | 146 kts | 12° |
| 2026-04-19 09:47 | -26.17356 | 28.24545 | 5730 ft | 145 kts | 11° |
| 2026-04-19 09:47 | -26.16389 | 28.24841 | 5562 ft | 146 kts | 12° |
| 2026-04-19 09:47 | -26.15453 | 28.25127 | 5520 ft | 130 kts | 14° |
| 2026-04-19 09:47 | -26.14731 | 28.25353 | 5509 ft | 85 kts | 15° |
| 2026-04-19 09:48 | -26.14304 | 28.25478 | 5515 ft | 43 kts | 6° |
| 2026-04-19 09:48 | -26.14063 | 28.25450 | 5515 ft | 26 kts | 350° |
| 2026-04-19 09:48 | -26.13970 | 28.25433 | 5515 ft | 8 kts | 351° |
| 2026-04-19 09:48 | -26.13919 | 28.25425 | 5515 ft | 8 kts | 352° |
| 2026-04-19 09:49 | -26.13866 | 28.25420 | 5514 ft | 8 kts | 1° |
| 2026-04-19 09:49 | -26.13807 | 28.25431 | 5513 ft | 11 kts | 12° |
| 2026-04-19 09:49 | -26.13690 | 28.25466 | 5511 ft | 25 kts | 15° |
| 2026-04-19 09:49 | -26.13503 | 28.25523 | 5510 ft | 29 kts | 8° |
| 2026-04-19 09:50 | -26.13313 | 28.25492 | 5522 ft | 28 kts | 348° |
| 2026-04-19 09:50 | -26.13130 | 28.25448 | 5530 ft | 26 kts | 343° |
| 2026-04-19 09:50 | -26.12975 | 28.25348 | 5531 ft | 26 kts | 318° |
| 2026-04-19 09:50 | -26.12874 | 28.25184 | 5531 ft | 26 kts | 292° |
| 2026-04-19 09:51 | -26.12821 | 28.24993 | 5531 ft | 26 kts | 285° |
| 2026-04-19 09:51 | -26.12773 | 28.24802 | 5531 ft | 25 kts | 286° |
| 2026-04-19 09:51 | -26.12727 | 28.24626 | 5532 ft | 24 kts | 285° |
| 2026-04-19 09:51 | -26.12684 | 28.24449 | 5538 ft | 24 kts | 285° |
| 2026-04-19 09:52 | -26.12641 | 28.24279 | 5545 ft | 20 kts | 285° |
| 2026-04-19 09:52 | -26.12611 | 28.24161 | 5548 ft | 16 kts | 286° |
| 2026-04-19 09:52 | -26.12575 | 28.24024 | 5548 ft | 19 kts | 286° |
| 2026-04-19 09:52 | -26.12554 | 28.23898 | 5549 ft | 12 kts | 248° |
| 2026-04-19 09:53 | -26.12626 | 28.23855 | 5549 ft | 12 kts | 195° |
| 2026-04-19 09:53 | -26.12706 | 28.23832 | 5554 ft | 12 kts | 195° |
| 2026-04-19 09:53 | -26.12788 | 28.23807 | 5553 ft | 13 kts | 195° |
| 2026-04-19 09:53 | -26.12881 | 28.23778 | 5552 ft | 15 kts | 195° |
| 2026-04-19 09:54 | -26.12979 | 28.23748 | 5551 ft | 15 kts | 195° |
| 2026-04-19 09:54 | -26.13078 | 28.23717 | 5553 ft | 15 kts | 195° |
| 2026-04-19 09:54 | -26.13131 | 28.23656 | 5554 ft | 12 kts | 263° |
| 2026-04-19 09:54 | -26.13125 | 28.23565 | 5552 ft | 12 kts | 276° |
| 2026-04-19 09:55 | -26.13114 | 28.23478 | 5555 ft | 11 kts | 280° |
| 2026-04-19 09:55 | -26.13104 | 28.23409 | 5553 ft | 8 kts | 277° |
| 2026-04-19 09:55 | -26.13099 | 28.23361 | 5553 ft | 3 kts | 277° |
| 2026-04-19 09:55 | -26.13097 | 28.23342 | 5554 ft | 2 kts | 277° |
| 2026-04-19 09:56 | -26.13096 | 28.23336 | 5555 ft | 0 kts | 277° |